createdAt,value
2019-01-13T00:01:02.279Z,5.30
2019-01-13T00:03:37.200Z,5.30
2019-01-13T00:06:12.378Z,5.30
2019-01-13T00:08:48.829Z,5.30
2019-01-13T00:11:23.692Z,5.30
2019-01-13T00:13:58.816Z,5.30
2019-01-13T00:16:33.670Z,5.20
2019-01-13T00:19:08.549Z,5.30
2019-01-13T00:21:43.401Z,5.30
2019-01-13T00:24:18.246Z,5.30
2019-01-13T00:26:53.099Z,5.30
2019-01-13T00:29:27.935Z,5.30
2019-01-13T00:32:02.798Z,5.30
2019-01-13T00:34:37.661Z,5.30
2019-01-13T00:37:13.106Z,5.30
2019-01-13T00:39:48.910Z,5.20
2019-01-13T00:42:23.811Z,5.30
2019-01-13T00:44:58.743Z,5.20
2019-01-13T00:47:34.235Z,5.20
2019-01-13T00:50:14.518Z,5.20
2019-01-13T00:52:50.095Z,5.20
2019-01-13T00:55:25.010Z,5.20
2019-01-13T00:57:59.953Z,5.20
2019-01-13T01:00:34.782Z,5.20
2019-01-13T01:03:09.648Z,5.30
2019-01-13T01:05:45.159Z,5.20
2019-01-13T01:08:20.003Z,5.20
2019-01-13T01:10:54.837Z,5.20
2019-01-13T01:13:29.692Z,5.20
2019-01-13T01:16:04.613Z,5.20
2019-01-13T01:18:39.466Z,5.20
2019-01-13T01:21:15.576Z,5.20
2019-01-13T01:23:50.409Z,5.10
2019-01-13T01:26:25.537Z,5.20
2019-01-13T01:29:01.608Z,5.10
2019-01-13T01:31:36.446Z,5.20
2019-01-13T01:34:12.284Z,5.20
2019-01-13T01:36:47.125Z,5.10
2019-01-13T01:39:22.247Z,5.10
2019-01-13T01:41:57.392Z,5.10
2019-01-13T01:44:33.549Z,5.10
2019-01-13T01:47:09.277Z,5.10
2019-01-13T01:49:44.129Z,5.00
2019-01-13T01:52:19.287Z,5.00
2019-01-13T01:54:55.129Z,5.10
2019-01-13T01:57:31.286Z,5.00
2019-01-13T02:00:13.085Z,5.00
2019-01-13T02:02:47.932Z,5.00
2019-01-13T02:05:22.795Z,5.00
2019-01-13T02:07:57.974Z,5.00
2019-01-13T02:10:33.835Z,5.00
2019-01-13T02:13:08.803Z,5.00
2019-01-13T02:15:43.641Z,5.00
2019-01-13T02:18:20.604Z,5.00
2019-01-13T02:20:55.454Z,4.90
2019-01-13T02:23:30.646Z,5.00
2019-01-13T02:26:05.585Z,5.00
2019-01-13T02:28:40.433Z,5.00
2019-01-13T02:31:15.537Z,5.00
2019-01-13T02:33:50.371Z,5.00
2019-01-13T02:36:25.524Z,5.00
2019-01-13T02:39:00.370Z,5.00
2019-01-13T02:41:35.511Z,5.00
2019-01-13T02:44:11.969Z,5.10
2019-01-13T02:46:46.830Z,5.00
2019-01-13T02:49:21.674Z,5.10
2019-01-13T02:51:56.535Z,5.10
2019-01-13T02:54:31.477Z,5.00
2019-01-13T02:57:06.717Z,5.10
2019-01-13T02:59:42.228Z,5.10
2019-01-13T03:02:17.159Z,5.10
2019-01-13T03:04:53.271Z,5.00
2019-01-13T03:07:28.119Z,5.00
2019-01-13T03:10:03.339Z,5.10
2019-01-13T03:12:40.218Z,5.00
2019-01-13T03:15:19.982Z,5.10
2019-01-13T03:17:55.191Z,5.10
2019-01-13T03:20:30.449Z,5.00
2019-01-13T03:23:05.295Z,5.00
2019-01-13T03:25:40.223Z,5.00
2019-01-13T03:28:15.054Z,5.10
2019-01-13T03:30:51.119Z,5.10
2019-01-13T03:33:25.950Z,5.10
2019-01-13T03:36:01.065Z,5.10
2019-01-13T03:38:35.911Z,5.10
2019-01-13T03:41:11.066Z,5.10
2019-01-13T03:43:46.288Z,5.10
2019-01-13T03:46:21.217Z,5.10
2019-01-13T03:48:56.344Z,5.10
2019-01-13T03:51:31.483Z,5.10
2019-01-13T03:54:06.432Z,5.20
2019-01-13T03:56:41.351Z,5.20
2019-01-13T03:59:16.486Z,5.20
2019-01-13T04:01:51.347Z,5.10
2019-01-13T04:04:26.545Z,5.20
2019-01-13T04:07:01.413Z,5.20
2019-01-13T04:09:37.242Z,5.10
2019-01-13T04:12:12.082Z,5.10
2019-01-13T04:14:46.916Z,5.20
2019-01-13T04:17:21.775Z,5.10
2019-01-13T04:19:56.972Z,5.20
2019-01-13T04:22:31.821Z,5.20
2019-01-13T04:25:07.030Z,5.20
2019-01-13T04:27:42.811Z,5.10
2019-01-13T04:30:17.742Z,5.20
2019-01-13T04:32:53.010Z,5.10
2019-01-13T04:35:27.865Z,5.10
2019-01-13T04:38:02.748Z,5.20
2019-01-13T04:40:45.098Z,5.20
2019-01-13T04:43:19.945Z,5.20
2019-01-13T04:45:55.310Z,5.20
2019-01-13T04:48:30.151Z,5.10
2019-01-13T04:51:06.010Z,5.20
2019-01-13T04:53:40.841Z,5.20
2019-01-13T04:56:16.600Z,5.20
2019-01-13T04:58:51.714Z,5.20
2019-01-13T05:01:34.164Z,5.20
2019-01-13T05:04:03.418Z,5.20
2019-01-13T05:06:38.260Z,5.20
2019-01-13T05:09:14.094Z,5.20
2019-01-13T05:11:48.937Z,5.20
2019-01-13T05:14:24.793Z,5.20
2019-01-13T05:17:00.437Z,5.20
2019-01-13T05:19:35.997Z,5.30
2019-01-13T05:22:12.151Z,5.30
2019-01-13T05:24:47.290Z,5.30
2019-01-13T05:27:23.341Z,5.30
2019-01-13T05:29:58.480Z,5.30
2019-01-13T05:32:34.033Z,5.30
2019-01-13T05:35:09.874Z,5.30
2019-01-13T05:37:44.757Z,5.30
2019-01-13T05:40:19.763Z,5.30
2019-01-13T05:42:54.598Z,5.30
2019-01-13T05:45:29.456Z,5.30
2019-01-13T05:48:04.302Z,5.30
2019-01-13T05:50:39.168Z,5.30
2019-01-13T05:53:14.973Z,5.30
2019-01-13T05:55:50.169Z,5.30
2019-01-13T05:58:25.305Z,5.30
2019-01-13T06:01:01.179Z,5.30
2019-01-13T06:03:36.345Z,5.30
2019-01-13T06:06:11.190Z,5.30
2019-01-13T06:08:46.368Z,5.30
2019-01-13T06:11:21.214Z,5.20
2019-01-13T06:13:56.334Z,5.30
2019-01-13T06:16:31.468Z,5.20
2019-01-13T06:19:06.361Z,5.30
2019-01-13T06:21:42.589Z,5.20
2019-01-13T06:24:17.441Z,5.20
2019-01-13T06:26:52.291Z,5.30
2019-01-13T06:29:27.135Z,5.30
2019-01-13T06:32:28.314Z,5.30
2019-01-13T06:35:03.222Z,5.30
2019-01-13T06:37:38.386Z,5.40
2019-01-13T06:40:15.275Z,5.40
2019-01-13T06:42:50.498Z,5.40
2019-01-13T06:45:28.818Z,5.40
2019-01-13T06:48:03.757Z,5.30
2019-01-13T06:50:38.577Z,5.30
2019-01-13T06:53:13.786Z,5.30
2019-01-13T06:55:48.715Z,5.30
2019-01-13T06:58:23.661Z,5.30
2019-01-13T07:00:58.602Z,5.30
2019-01-13T07:03:33.855Z,5.30
2019-01-13T07:06:09.925Z,5.30
2019-01-13T07:08:44.759Z,5.30
2019-01-13T07:11:21.536Z,5.30
2019-01-13T07:13:56.656Z,5.40
2019-01-13T07:16:31.593Z,5.40
2019-01-13T07:19:06.827Z,5.40
2019-01-13T07:21:41.677Z,5.40
2019-01-13T07:24:16.537Z,5.40
2019-01-13T07:26:51.747Z,5.40
2019-01-13T07:29:28.243Z,5.40
2019-01-13T07:32:03.173Z,5.40
2019-01-13T07:34:38.085Z,5.40
2019-01-13T07:37:12.929Z,5.40
2019-01-13T07:39:48.034Z,5.50
2019-01-13T07:42:23.171Z,5.50
2019-01-13T07:44:57.993Z,5.50
2019-01-13T07:47:33.969Z,5.50
2019-01-13T07:50:11.711Z,5.50
2019-01-13T07:52:46.998Z,5.50
2019-01-13T07:55:21.838Z,5.50
2019-01-13T07:58:00.502Z,5.50
2019-01-13T08:00:36.510Z,5.50
2019-01-13T08:03:11.526Z,5.50
2019-01-13T08:05:47.167Z,5.60
2019-01-13T08:08:22.230Z,5.60
2019-01-13T08:10:57.075Z,5.60
2019-01-13T08:13:32.232Z,5.60
2019-01-13T08:16:07.154Z,5.60
2019-01-13T08:18:42.585Z,5.70
2019-01-13T08:21:17.529Z,5.70
2019-01-13T08:23:52.495Z,5.80
2019-01-13T08:26:27.438Z,5.80
2019-01-13T08:29:03.236Z,5.80
2019-01-13T08:31:38.177Z,5.80
2019-01-13T08:34:13.009Z,5.80
2019-01-13T08:36:48.161Z,5.80
2019-01-13T08:39:24.395Z,5.90
2019-01-13T08:41:59.312Z,5.90
2019-01-13T08:44:34.612Z,5.90
2019-01-13T08:47:09.446Z,6.00
2019-01-13T08:49:44.630Z,6.00
2019-01-13T08:52:19.478Z,6.00
2019-01-13T08:54:54.630Z,6.00
2019-01-13T08:57:29.477Z,6.00
2019-01-13T09:00:17.284Z,6.00
2019-01-13T09:02:52.121Z,6.00
2019-01-13T09:05:27.512Z,6.00
2019-01-13T09:08:02.985Z,6.10
2019-01-13T09:10:38.138Z,6.10
2019-01-13T09:13:13.269Z,6.20
2019-01-13T09:15:48.413Z,6.20
2019-01-13T09:18:23.346Z,6.20
2019-01-13T09:20:58.206Z,6.10
2019-01-13T09:23:33.068Z,6.10
2019-01-13T09:26:08.237Z,6.10
2019-01-13T09:28:43.080Z,6.10
2019-01-13T09:31:18.862Z,6.10
2019-01-13T09:33:54.053Z,6.00
2019-01-13T09:36:29.694Z,6.00
2019-01-13T09:39:07.302Z,6.00
2019-01-13T09:41:42.654Z,5.90
2019-01-13T09:44:18.515Z,5.90
2019-01-13T09:46:53.637Z,5.90
2019-01-13T09:49:28.786Z,5.90
2019-01-13T09:52:03.628Z,5.90
2019-01-13T09:54:38.462Z,5.90
2019-01-13T09:57:14.604Z,5.90
2019-01-13T09:59:50.392Z,6.00
2019-01-13T10:02:25.598Z,5.90
2019-01-13T10:05:00.717Z,5.90
2019-01-13T10:07:35.821Z,6.00
2019-01-13T10:10:13.162Z,6.00
2019-01-13T10:12:47.992Z,6.00
2019-01-13T10:15:27.386Z,6.00
2019-01-13T10:18:02.312Z,6.00
2019-01-13T10:20:38.231Z,6.00
2019-01-13T10:23:13.458Z,6.00
2019-01-13T10:25:48.277Z,6.00
2019-01-13T10:28:23.419Z,6.00
2019-01-13T10:31:03.101Z,6.00
2019-01-13T10:33:34.820Z,6.00
2019-01-13T10:36:10.889Z,5.90
2019-01-13T10:38:45.710Z,5.90
2019-01-13T10:41:20.552Z,5.90
2019-01-13T10:43:56.908Z,5.90
2019-01-13T10:46:32.064Z,5.90
2019-01-13T10:49:07.193Z,5.90
2019-01-13T10:51:43.011Z,5.90
2019-01-13T10:54:17.941Z,5.90
2019-01-13T10:56:52.779Z,5.90
2019-01-13T10:59:28.050Z,5.90
2019-01-13T11:02:02.903Z,5.90
2019-01-13T11:04:38.222Z,5.90
2019-01-13T11:07:13.091Z,6.00
2019-01-13T11:09:48.291Z,5.90
2019-01-13T11:12:23.142Z,6.00
2019-01-13T11:14:58.258Z,5.90
2019-01-13T11:17:33.496Z,6.00
2019-01-13T11:20:12.537Z,5.90
2019-01-13T11:22:47.431Z,5.90
2019-01-13T11:25:22.266Z,5.90
2019-01-13T11:27:57.157Z,5.90
2019-01-13T11:30:33.154Z,6.00
2019-01-13T11:33:09.608Z,5.90
2019-01-13T11:35:44.902Z,5.90
2019-01-13T11:38:19.757Z,6.00
2019-01-13T11:40:54.893Z,5.90
2019-01-13T11:43:29.970Z,5.90
2019-01-13T11:46:05.130Z,5.90
2019-01-13T11:48:40.270Z,5.90
2019-01-13T11:51:15.415Z,5.90
2019-01-13T11:53:50.313Z,5.90
2019-01-13T11:56:25.189Z,5.90
2019-01-13T11:59:00.416Z,5.90
2019-01-13T12:01:35.259Z,5.90
2019-01-13T12:04:10.687Z,5.90
2019-01-13T12:06:45.537Z,5.90
2019-01-13T12:09:20.389Z,6.00
2019-01-13T12:11:55.623Z,5.90
2019-01-13T12:14:30.864Z,5.90
2019-01-13T12:17:06.178Z,5.90
2019-01-13T12:19:41.014Z,5.90
2019-01-13T12:22:15.866Z,5.90
2019-01-13T12:24:50.993Z,5.90
2019-01-13T12:27:25.877Z,5.90
2019-01-13T12:30:02.090Z,5.90
2019-01-13T12:32:37.330Z,5.80
2019-01-13T12:35:12.185Z,5.90
2019-01-13T12:37:47.118Z,5.90
2019-01-13T12:40:25.366Z,5.80
2019-01-13T12:43:00.209Z,5.90
2019-01-13T12:45:36.711Z,5.90
2019-01-13T12:48:11.562Z,5.90
2019-01-13T12:50:46.418Z,5.90
2019-01-13T12:53:21.685Z,5.90
2019-01-13T12:55:56.572Z,5.90
2019-01-13T12:58:31.855Z,5.90
2019-01-13T13:01:07.880Z,5.90
2019-01-13T13:03:42.715Z,5.90
2019-01-13T13:06:17.607Z,6.00
2019-01-13T13:08:52.790Z,5.90
2019-01-13T13:11:28.010Z,5.90
2019-01-13T13:14:03.211Z,5.90
2019-01-13T13:16:39.025Z,6.00
2019-01-13T13:19:13.895Z,6.00
2019-01-13T13:21:49.019Z,6.00
2019-01-13T13:24:25.913Z,6.00
2019-01-13T13:27:02.873Z,6.10
2019-01-13T13:29:38.041Z,6.10
2019-01-13T13:32:13.537Z,6.10
2019-01-13T13:34:48.721Z,6.10
2019-01-13T13:37:23.575Z,6.20
2019-01-13T13:40:03.610Z,6.20
2019-01-13T13:42:38.730Z,6.20
2019-01-13T13:45:13.606Z,6.30
2019-01-13T13:47:48.462Z,6.30
2019-01-13T13:50:24.850Z,6.30
2019-01-13T13:53:00.497Z,6.40
2019-01-13T13:55:35.323Z,6.30
2019-01-13T13:58:10.475Z,6.40
2019-01-13T14:00:46.633Z,6.40
2019-01-13T14:03:21.753Z,6.40
2019-01-13T14:05:56.590Z,6.50
2019-01-13T14:08:31.950Z,6.60
2019-01-13T14:11:08.762Z,6.50
2019-01-13T14:13:44.342Z,6.60
2019-01-13T14:16:19.548Z,6.60
2019-01-13T14:18:55.138Z,6.60
2019-01-13T14:21:31.308Z,6.70
2019-01-13T14:24:06.456Z,6.70
2019-01-13T14:26:41.835Z,6.70
2019-01-13T14:29:20.687Z,6.70
2019-01-13T14:31:55.866Z,6.80
2019-01-13T14:34:31.098Z,6.80
2019-01-13T14:37:06.119Z,6.90
2019-01-13T14:39:48.572Z,6.80
2019-01-13T14:42:19.017Z,6.90
2019-01-13T14:44:53.987Z,6.90
2019-01-13T14:47:30.254Z,6.90
2019-01-13T14:50:09.337Z,7.00
2019-01-13T14:52:45.075Z,7.10
2019-01-13T14:55:20.064Z,7.10
2019-01-13T14:57:54.925Z,7.10
2019-01-13T15:00:32.515Z,7.20
2019-01-13T15:03:07.839Z,7.20
2019-01-13T15:05:42.737Z,7.20
2019-01-13T15:08:18.237Z,7.20
2019-01-13T15:10:53.325Z,7.20
2019-01-13T15:13:29.180Z,7.20
2019-01-13T15:16:04.379Z,7.30
2019-01-13T15:18:39.499Z,7.20
2019-01-13T15:21:14.359Z,7.30
2019-01-13T15:23:53.769Z,7.30
2019-01-13T15:26:28.664Z,7.30
2019-01-13T15:29:03.756Z,7.30
2019-01-13T15:31:39.217Z,7.30
2019-01-13T15:34:15.172Z,7.30
2019-01-13T15:36:50.102Z,7.30
2019-01-13T15:39:25.075Z,7.30
2019-01-13T15:42:00.263Z,7.30
2019-01-13T15:44:36.528Z,7.40
2019-01-13T15:47:11.771Z,7.40
2019-01-13T15:49:46.667Z,7.40
2019-01-13T15:52:23.781Z,7.40
2019-01-13T15:54:58.713Z,7.40
2019-01-13T15:57:33.566Z,7.40
2019-01-13T16:00:23.149Z,7.30
2019-01-13T16:02:59.675Z,7.30
2019-01-13T16:05:34.779Z,7.40
2019-01-13T16:08:10.032Z,7.40
2019-01-13T16:10:45.312Z,7.50
2019-01-13T16:13:20.254Z,7.50
2019-01-13T16:15:55.089Z,7.50
2019-01-13T16:18:29.988Z,7.50
2019-01-13T16:21:04.835Z,7.40
2019-01-13T16:23:39.973Z,7.40
2019-01-13T16:26:15.015Z,7.40
2019-01-13T16:28:50.537Z,7.40
2019-01-13T16:31:36.536Z,7.40
2019-01-13T16:34:11.981Z,7.40
2019-01-13T16:36:47.441Z,7.50
2019-01-13T16:39:24.708Z,7.50
2019-01-13T16:41:59.925Z,7.40
2019-01-13T16:44:35.135Z,7.40
2019-01-13T16:47:10.069Z,7.50
2019-01-13T16:49:45.298Z,7.50
2019-01-13T16:52:20.636Z,7.50
2019-01-13T16:54:56.289Z,7.50
2019-01-13T16:57:31.233Z,7.60
2019-01-13T17:00:19.292Z,7.50
2019-01-13T17:02:54.694Z,7.50
2019-01-13T17:05:29.665Z,7.50
2019-01-13T17:08:04.869Z,7.50
2019-01-13T17:10:39.805Z,7.50
2019-01-13T17:13:16.096Z,7.50
2019-01-13T17:15:53.203Z,7.40
2019-01-13T17:18:28.123Z,7.40
2019-01-13T17:21:03.181Z,7.50
2019-01-13T17:23:38.568Z,7.40
2019-01-13T17:26:13.817Z,7.40
2019-01-13T17:28:48.696Z,7.40
2019-01-13T17:31:23.863Z,7.40
2019-01-13T17:33:58.750Z,7.40
2019-01-13T17:36:33.825Z,7.40
2019-01-13T17:39:09.363Z,7.30
2019-01-13T17:41:44.720Z,7.30
2019-01-13T17:44:19.669Z,7.30
2019-01-13T17:46:54.663Z,7.40
2019-01-13T17:49:29.514Z,7.40
2019-01-13T17:52:04.452Z,7.30
2019-01-13T17:54:39.963Z,7.30
2019-01-13T17:57:15.148Z,7.30
2019-01-13T17:59:50.282Z,7.30
2019-01-13T18:02:25.522Z,7.30
2019-01-13T18:05:00.772Z,7.20
2019-01-13T18:07:39.074Z,7.30
2019-01-13T18:10:16.964Z,7.30
2019-01-13T18:12:52.078Z,7.20
2019-01-13T18:15:27.310Z,7.20
2019-01-13T18:18:03.604Z,7.20
2019-01-13T18:20:38.453Z,7.10
2019-01-13T18:23:13.420Z,7.10
2019-01-13T18:25:48.380Z,7.00
2019-01-13T18:28:23.953Z,7.00
2019-01-13T18:31:00.088Z,7.00
2019-01-13T18:33:35.369Z,7.00
2019-01-13T18:36:11.024Z,6.90
2019-01-13T18:38:48.042Z,6.90
2019-01-13T18:41:23.455Z,6.80
2019-01-13T18:43:58.403Z,6.80
2019-01-13T18:46:33.262Z,6.60
2019-01-13T18:49:08.531Z,6.60
2019-01-13T18:51:43.435Z,6.60
2019-01-13T18:54:18.577Z,6.60
2019-01-13T18:56:54.241Z,6.50
2019-01-13T18:59:30.179Z,6.50
2019-01-13T19:02:05.942Z,6.50
2019-01-13T19:04:40.795Z,6.50
2019-01-13T19:07:20.294Z,6.40
2019-01-13T19:09:55.339Z,6.40
2019-01-13T19:12:30.297Z,6.40
2019-01-13T19:15:08.516Z,6.30
2019-01-13T19:17:43.370Z,6.30
2019-01-13T19:20:19.694Z,6.30
2019-01-13T19:22:54.669Z,6.30
2019-01-13T19:25:29.595Z,6.20
2019-01-13T19:28:05.598Z,6.30
2019-01-13T19:30:40.785Z,6.20
2019-01-13T19:33:15.641Z,6.20
2019-01-13T19:35:51.671Z,6.10
2019-01-13T19:38:30.227Z,6.10
2019-01-13T19:41:05.189Z,6.10
2019-01-13T19:43:41.207Z,6.10
2019-01-13T19:46:18.662Z,6.10
2019-01-13T19:48:54.259Z,6.10
2019-01-13T19:51:30.330Z,6.00
2019-01-13T19:54:05.740Z,6.00
2019-01-13T19:56:41.122Z,6.00
2019-01-13T19:59:16.344Z,5.90
2019-01-13T20:01:51.676Z,5.90
2019-01-13T20:04:26.537Z,5.90
2019-01-13T20:07:03.145Z,5.90
2019-01-13T20:09:38.595Z,5.80
2019-01-13T20:12:13.550Z,5.80
2019-01-13T20:14:48.656Z,5.80
2019-01-13T20:17:24.922Z,5.80
2019-01-13T20:19:59.931Z,5.70
2019-01-13T20:22:34.827Z,5.80
2019-01-13T20:25:12.121Z,5.80
2019-01-13T20:27:47.555Z,5.70
2019-01-13T20:30:28.699Z,5.70
2019-01-13T20:33:04.127Z,5.70
2019-01-13T20:35:39.354Z,5.60
2019-01-13T20:38:16.604Z,5.60
2019-01-13T20:40:51.639Z,5.50
2019-01-13T20:43:31.001Z,5.50
2019-01-13T20:46:09.994Z,5.50
2019-01-13T20:48:45.669Z,5.40
2019-01-13T20:51:21.113Z,5.50
2019-01-13T20:53:59.283Z,5.40
2019-01-13T20:56:34.175Z,5.50
2019-01-13T20:59:11.246Z,5.50
2019-01-13T21:01:46.168Z,5.50
2019-01-13T21:04:21.059Z,5.50
2019-01-13T21:06:59.387Z,5.50
2019-01-13T21:09:34.728Z,5.50
2019-01-13T21:12:10.423Z,5.60
2019-01-13T21:14:45.574Z,5.50
2019-01-13T21:17:33.567Z,5.60
2019-01-13T21:20:10.028Z,5.60
2019-01-13T21:22:45.363Z,5.50
2019-01-13T21:25:23.631Z,5.50
2019-01-13T21:28:00.388Z,5.40
2019-01-13T21:30:36.310Z,5.50
2019-01-13T21:33:12.567Z,5.50
2019-01-13T21:35:47.698Z,5.50
2019-01-13T21:38:22.569Z,5.50
2019-01-13T21:40:58.696Z,5.50
2019-01-13T21:43:34.536Z,5.40
2019-01-13T21:46:09.373Z,5.40
2019-01-13T21:48:46.166Z,5.50
2019-01-13T21:51:21.253Z,5.50
2019-01-13T21:53:57.052Z,5.50
2019-01-13T21:56:33.897Z,5.60
2019-01-13T21:59:09.233Z,5.50
2019-01-13T22:01:44.180Z,5.60
2019-01-13T22:04:20.647Z,5.60
2019-01-13T22:06:55.513Z,5.60
2019-01-13T22:09:30.400Z,5.60
2019-01-13T22:12:05.344Z,5.60
2019-01-13T22:14:40.173Z,5.60
2019-01-13T22:17:16.919Z,5.60
2019-01-13T22:19:52.058Z,5.60
2019-01-13T22:22:27.241Z,5.60
2019-01-13T22:25:05.074Z,5.60
2019-01-13T22:27:40.345Z,5.60
2019-01-13T22:30:23.393Z,5.60
2019-01-13T22:32:58.808Z,5.60
2019-01-13T22:35:33.688Z,5.60
2019-01-13T22:38:09.366Z,5.70
2019-01-13T22:40:45.121Z,5.70
2019-01-13T22:43:21.076Z,5.70
2019-01-13T22:45:56.347Z,5.70
2019-01-13T22:48:31.586Z,5.70
2019-01-13T22:51:06.582Z,5.80
2019-01-13T22:53:41.468Z,5.70
2019-01-13T22:56:17.415Z,5.60
2019-01-13T22:58:52.702Z,5.50
2019-01-13T23:01:28.790Z,5.30
2019-01-13T23:04:04.028Z,5.20
2019-01-13T23:06:38.975Z,5.10
2019-01-13T23:09:14.180Z,5.00
2019-01-13T23:11:49.072Z,4.80
2019-01-13T23:14:23.928Z,4.70
2019-01-13T23:16:59.875Z,4.70
2019-01-13T23:19:34.822Z,4.60
2019-01-13T23:22:10.002Z,4.70
2019-01-13T23:24:46.143Z,4.60
2019-01-13T23:27:21.354Z,4.60
2019-01-13T23:29:56.194Z,4.70
2019-01-13T23:32:31.325Z,4.80
2019-01-13T23:35:06.454Z,4.80
2019-01-13T23:37:41.309Z,4.90
2019-01-13T23:40:16.434Z,4.90
2019-01-13T23:42:51.567Z,4.80
2019-01-13T23:45:26.457Z,4.80
2019-01-13T23:48:01.318Z,4.80
2019-01-13T23:50:37.066Z,4.80
2019-01-13T23:53:12.034Z,4.80
2019-01-13T23:55:46.873Z,4.80
2019-01-13T23:58:22.103Z,4.80
